Time;durP1;ratioP1;P1;durP2;ratioP2;P2;SDS_P1;SDS_P2;PMS_P1;PMS_P2;Temp;Humidity;BMP_temperature;BMP_pressure;BME280_temperature;BME280_humidity;BME280_pressure;Samples;Min_cycle;Max_cycle;Signal;HPM_P1;HPM_P2
2022/06/13 00:00:13;;;;;;;0.82;0.82;;;21.40;81.60;;;;;;5036682;28;20445;-91
2022/06/13 00:02:38;;;;;;;2.80;0.52;;;21.30;82.20;;;;;;5035287;28;20029;-91
2022/06/13 00:05:07;;;;;;;0.65;0.65;;;21.20;82.30;;;;;;5035460;28;20034;-91
2022/06/13 00:07:32;;;;;;;0.75;0.75;;;21.20;82.80;;;;;;5036240;28;20140;-91
2022/06/13 00:09:58;;;;;;;0.25;0.25;;;21.20;83.30;;;;;;5036440;28;20029;-91
2022/06/13 00:12:24;;;;;;;0.50;0.50;;;21.20;83.20;;;;;;5036157;28;20105;-91
2022/06/13 00:14:50;;;;;;;0.47;0.47;;;21.10;83.10;;;;;;5035208;28;20035;-91
2022/06/13 00:17:16;;;;;;;0.25;0.25;;;21.10;83.70;;;;;;5035228;28;20116;-90
2022/06/13 00:19:41;;;;;;;0.25;0.25;;;21.00;83.40;;;;;;5035076;28;20049;-91
2022/06/13 00:22:07;;;;;;;0.20;0.20;;;21.00;84.10;;;;;;5036268;28;20529;-91
2022/06/13 00:24:34;;;;;;;0.82;0.43;;;21.00;83.80;;;;;;5034828;28;20025;-91
2022/06/13 00:27:00;;;;;;;0.88;0.55;;;20.90;84.30;;;;;;5034843;28;20037;-92
2022/06/13 00:29:26;;;;;;;0.38;0.38;;;20.90;85.00;;;;;;5034980;28;20033;-91
2022/06/13 00:31:52;;;;;;;0.30;0.30;;;20.80;84.70;;;;;;5031239;28;20049;-91
2022/06/13 00:34:17;;;;;;;0.10;0.10;;;20.80;85.20;;;;;;5035033;28;20033;-92
2022/06/13 00:36:43;;;;;;;0.45;0.45;;;20.80;85.00;;;;;;5042290;28;20468;-91
2022/06/13 00:39:09;;;;;;;1.20;0.98;;;20.80;85.00;;;;;;5036033;28;20056;-92
2022/06/13 00:41:39;;;;;;;0.63;0.10;;;20.80;85.50;;;;;;5035874;28;20034;-92
2022/06/13 00:44:21;;;;;;;;;;;20.70;86.50;;;;;;5036277;28;20088;-91
2022/06/13 00:46:48;;;;;;;0.20;0.20;;;20.60;86.00;;;;;;5034598;28;20425;-91
2022/06/13 00:49:28;;;;;;;0.32;0.32;;;20.60;86.50;;;;;;5034767;28;20053;-91
2022/06/13 00:52:17;;;;;;;0.10;0.10;;;20.50;86.90;;;;;;5034592;28;20423;-92
2022/06/13 00:54:44;;;;;;;0.70;0.63;;;20.50;87.60;;;;;;5034558;28;20101;-92
2022/06/13 00:57:20;;;;;;;0.20;0.20;;;20.50;88.00;;;;;;5034324;28;20021;-91
2022/06/13 00:59:48;;;;;;;0.68;0.35;;;20.40;88.00;;;;;;5034494;28;20121;-92
2022/06/13 01:02:14;;;;;;;0.63;0.63;;;20.40;88.30;;;;;;5035276;28;20368;-91
2022/06/13 01:04:42;;;;;;;0.40;0.40;;;20.40;88.60;;;;;;5034109;28;20021;-91
2022/06/13 01:07:10;;;;;;;0.57;0.57;;;20.40;88.60;;;;;;5034106;28;20072;-91
2022/06/13 01:12:23;;;;;;;0.93;0.55;;;20.40;89.30;;;;;;5035605;28;20060;-91
2022/06/13 01:15:27;;;;;;;0.05;0.05;;;20.40;89.60;;;;;;5034057;28;20025;-91
2022/06/13 01:18:14;;;;;;;0.43;0.43;;;20.40;90.00;;;;;;4985736;28;20091;-92
2022/06/13 01:20:49;;;;;;;0.47;0.10;;;20.30;90.30;;;;;;5034249;28;20017;-91
2022/06/13 01:23:38;;;;;;;0.52;0.52;;;20.30;90.30;;;;;;5033741;28;20017;-92
2022/06/13 01:26:22;;;;;;;1.65;0.60;;;20.20;90.80;;;;;;5006702;28;20029;-91
2022/06/13 01:28:47;;;;;;;0.03;0.03;;;20.20;91.10;;;;;;5035230;28;20021;-91
2022/06/13 01:31:46;;;;;;;0.57;0.20;;;20.20;91.30;;;;;;5033737;28;20129;-92
2022/06/13 01:34:33;;;;;;;0.55;0.55;;;20.20;91.60;;;;;;5034647;28;20022;-91
2022/06/13 01:37:36;;;;;;;0.38;0.30;;;20.10;91.70;;;;;;5033206;28;20025;-91
2022/06/13 01:40:19;;;;;;;0.40;0.40;;;20.10;91.90;;;;;;5033607;28;20026;-92
2022/06/13 01:42:57;;;;;;;0.13;0.13;;;20.00;92.50;;;;;;5034914;28;20021;-91
2022/06/13 01:45:25;;;;;;;0.15;0.08;;;20.00;92.40;;;;;;5038938;28;20025;-92
2022/06/13 01:48:17;;;;;;;0.43;0.43;;;20.00;92.60;;;;;;5036215;28;20026;-92
2022/06/13 01:50:46;;;;;;;0.10;0.10;;;20.00;92.90;;;;;;5034523;28;20025;-92
2022/06/13 01:53:56;;;;;;;0.27;0.27;;;19.90;92.60;;;;;;5033566;28;20057;-92
2022/06/13 01:56:39;;;;;;;0.65;0.65;;;20.00;92.70;;;;;;5030453;28;20255;-92
2022/06/13 01:59:31;;;;;;;0.30;0.30;;;19.90;92.80;;;;;;5034512;28;20403;-91
2022/06/13 02:02:05;;;;;;;0.80;0.47;;;19.90;92.90;;;;;;5034366;28;20049;-92
2022/06/13 02:04:45;;;;;;;0.55;0.43;;;19.90;92.90;;;;;;5034452;28;20033;-92
2022/06/13 02:07:14;;;;;;;;;;;19.80;92.90;;;;;;5033501;28;20029;-93
2022/06/13 02:09:59;;;;;;;0.00;0.00;;;19.80;92.80;;;;;;5034360;28;19905;-93
2022/06/13 02:12:28;;;;;;;1.05;1.00;;;19.80;92.80;;;;;;5034299;28;20513;-93
2022/06/13 02:15:02;;;;;;;0.37;0.37;;;19.80;93.20;;;;;;5033515;28;20039;-93
2022/06/13 02:17:34;;;;;;;0.40;0.28;;;19.80;93.00;;;;;;5033078;28;20025;-92
2022/06/13 02:20:07;;;;;;;0.60;0.60;;;19.80;93.10;;;;;;5033126;28;20041;-92
2022/06/13 02:22:35;;;;;;;1.10;0.45;;;19.80;93.20;;;;;;5034015;28;20514;-93
2022/06/13 02:25:18;;;;;;;0.57;0.57;;;19.80;93.50;;;;;;5033257;28;20029;-93
2022/06/13 02:27:56;;;;;;;0.20;0.20;;;19.80;94.10;;;;;;5032989;28;20121;-93
2022/06/13 02:30:28;;;;;;;1.77;1.45;;;19.90;94.00;;;;;;5032985;28;20488;-93
2022/06/13 02:33:22;;;;;;;0.75;0.57;;;19.90;94.10;;;;;;5032985;28;20060;-92
2022/06/13 02:36:04;;;;;;;0.20;0.20;;;19.90;94.10;;;;;;5034206;28;20380;-93
2022/06/13 02:38:46;;;;;;;0.40;0.40;;;19.90;94.40;;;;;;5033004;28;20030;-93
2022/06/13 02:41:19;;;;;;;0.40;0.40;;;19.90;94.40;;;;;;5032979;28;20148;-92
2022/06/13 02:43:47;;;;;;;4.90;0.85;;;19.90;94.90;;;;;;5032904;28;20120;-92
2022/06/13 02:46:19;;;;;;;0.32;0.30;;;19.90;94.30;;;;;;5034064;28;20504;-92
2022/06/13 02:49:00;;;;;;;1.38;1.05;;;19.90;94.40;;;;;;5032495;28;20029;-91
2022/06/13 02:51:51;;;;;;;0.65;0.65;;;19.90;94.40;;;;;;5036688;28;20031;-91
2022/06/13 02:54:49;;;;;;;0.80;0.80;;;20.00;94.50;;;;;;5039942;28;20021;-91
2022/06/13 02:57:36;;;;;;;0.30;0.30;;;20.00;94.30;;;;;;5036564;28;20084;-92
2022/06/13 03:00:31;;;;;;;0.05;0.05;;;20.00;94.70;;;;;;5036763;28;20119;-91
2022/06/13 03:03:00;;;;;;;0.40;0.40;;;20.00;94.80;;;;;;5036832;28;20022;-91
2022/06/13 03:05:55;;;;;;;0.95;0.95;;;20.00;94.80;;;;;;5037094;28;20021;-91
2022/06/13 03:08:24;;;;;;;0.43;0.20;;;20.10;95.10;;;;;;5032281;28;20183;-90
2022/06/13 03:11:07;;;;;;;0.20;0.13;;;20.10;95.80;;;;;;5036229;28;20102;-91
